createdAt,value
2023-06-19T00:00:50.172Z,52.51
2023-06-19T00:05:59.907Z,52.41
2023-06-19T00:11:06.498Z,52.22
2023-06-19T00:16:09.830Z,52.37
2023-06-19T00:21:14.803Z,52.57
2023-06-19T00:26:25.597Z,52.85
2023-06-19T00:31:28.604Z,52.89
2023-06-19T00:36:42.027Z,52.60
2023-06-19T00:41:45.468Z,53.05
2023-06-19T00:46:51.041Z,52.85
2023-06-19T00:51:56.838Z,52.73
2023-06-19T00:57:01.408Z,53.14
2023-06-19T01:05:21.199Z,52.59
2023-06-19T01:10:34.749Z,52.29
2023-06-19T01:15:38.513Z,52.65
2023-06-19T01:20:42.485Z,52.78
2023-06-19T01:25:46.546Z,52.79
2023-06-19T01:31:03.968Z,53.24
2023-06-19T01:36:25.847Z,53.53
2023-06-19T01:41:29.272Z,52.92
2023-06-19T01:46:31.701Z,52.59
2023-06-19T01:51:38.829Z,52.37
2023-06-19T01:56:44.954Z,52.31
2023-06-19T02:01:50.856Z,51.94
2023-06-19T02:07:01.346Z,51.83
2023-06-19T02:12:18.020Z,52.36
2023-06-19T02:17:31.302Z,52.45
2023-06-19T02:22:39.433Z,52.34
2023-06-19T02:27:45.966Z,52.61
2023-06-19T02:33:11.856Z,52.58
2023-06-19T02:38:15.665Z,53.26
2023-06-19T02:43:55.401Z,53.17
2023-06-19T02:49:14.149Z,53.96
2023-06-19T02:54:29.434Z,54.09
2023-06-19T03:00:00.884Z,55.05
2023-06-19T03:05:17.364Z,55.10
2023-06-19T03:10:19.855Z,55.74
2023-06-19T03:15:22.321Z,56.58
2023-06-19T03:20:27.786Z,56.80
2023-06-19T03:25:36.472Z,57.35
2023-06-19T03:30:39.941Z,57.25
2023-06-19T03:35:48.887Z,58.54
2023-06-19T03:41:09.663Z,58.20
2023-06-19T03:46:19.133Z,58.18
2023-06-19T03:51:24.449Z,60.29
2023-06-19T03:56:32.706Z,58.88
2023-06-19T04:02:15.106Z,61.07
2023-06-19T04:07:22.681Z,60.61
2023-06-19T04:12:25.421Z,60.95
2023-06-19T04:17:31.309Z,61.97
2023-06-19T04:22:33.558Z,62.42
2023-06-19T04:27:38.640Z,63.42
2023-06-19T04:32:42.071Z,64.17
2023-06-19T04:37:44.548Z,64.63
2023-06-19T04:42:46.583Z,65.29
2023-06-19T04:47:53.945Z,66.32
2023-06-19T04:52:56.465Z,67.09
2023-06-19T04:57:58.575Z,66.63
2023-06-19T05:03:00.869Z,67.48
2023-06-19T05:08:03.432Z,67.23
2023-06-19T05:13:05.626Z,67.73
2023-06-19T05:18:07.747Z,68.26
2023-06-19T05:23:19.114Z,69.13
2023-06-19T05:28:21.344Z,69.37
2023-06-19T05:33:24.753Z,69.88
2023-06-19T05:38:29.486Z,69.76
2023-06-19T05:43:34.593Z,70.32
2023-06-19T05:48:36.883Z,69.99
2023-06-19T05:53:40.079Z,70.10
2023-06-19T05:58:42.582Z,70.58
2023-06-19T06:03:45.786Z,70.61
2023-06-19T06:08:50.466Z,69.89
2023-06-19T06:13:52.601Z,70.05
2023-06-19T06:18:54.806Z,69.53
2023-06-19T06:23:59.560Z,69.23
2023-06-19T06:29:02.291Z,68.60
2023-06-19T06:34:05.312Z,68.33
2023-06-19T06:39:07.732Z,67.49
2023-06-19T06:44:10.133Z,66.77
2023-06-19T06:49:13.633Z,65.53
2023-06-19T06:54:15.994Z,64.57
2023-06-19T06:59:18.178Z,63.69
2023-06-19T07:04:20.474Z,61.97
2023-06-19T07:09:22.815Z,60.85
2023-06-19T07:14:25.035Z,60.16
2023-06-19T07:19:30.877Z,59.42
2023-06-19T07:24:33.617Z,58.60
2023-06-19T07:29:35.819Z,58.17
2023-06-19T07:34:37.836Z,56.84
2023-06-19T07:39:40.041Z,56.38
2023-06-19T07:44:42.530Z,55.55
2023-06-19T07:49:44.781Z,54.13
2023-06-19T07:54:57.611Z,52.43
2023-06-19T07:59:59.664Z,52.74
2023-06-19T08:05:04.513Z,50.96
2023-06-19T08:10:13.050Z,51.33
2023-06-19T08:15:16.654Z,51.25
2023-06-19T08:20:19.392Z,50.82
2023-06-19T08:25:24.322Z,50.43
2023-06-19T08:30:29.799Z,50.37
2023-06-19T08:35:32.323Z,50.60
2023-06-19T08:40:35.024Z,50.95
2023-06-19T08:45:37.204Z,54.17
2023-06-19T08:50:40.193Z,57.08
2023-06-19T08:55:42.257Z,59.20
2023-06-19T09:00:48.866Z,61.21
2023-06-19T09:05:54.819Z,60.84
2023-06-19T09:11:09.115Z,61.78
2023-06-19T09:16:12.891Z,62.85
2023-06-19T09:21:20.093Z,64.46
2023-06-19T09:26:26.759Z,63.11
2023-06-19T09:31:35.363Z,61.97
2023-06-19T09:36:38.456Z,61.02
2023-06-19T09:41:45.515Z,61.60
2023-06-19T09:46:50.862Z,60.02
2023-06-19T09:51:53.640Z,58.72
2023-06-19T09:56:59.606Z,57.38
2023-06-19T10:02:07.717Z,56.49
2023-06-19T10:07:28.654Z,55.16
2023-06-19T10:12:44.756Z,53.27
2023-06-19T10:17:52.329Z,51.73
2023-06-19T10:23:04.502Z,50.39
2023-06-19T10:28:22.520Z,48.32
2023-06-19T10:33:30.075Z,47.07
2023-06-19T10:38:32.335Z,47.12
2023-06-19T10:43:34.590Z,46.16
2023-06-19T10:48:39.225Z,45.86
2023-06-19T10:53:42.986Z,45.03
2023-06-19T10:58:45.143Z,45.21
2023-06-19T11:03:47.379Z,45.52
2023-06-19T11:08:54.353Z,43.92
2023-06-19T11:13:56.598Z,43.43
2023-06-19T11:18:59.274Z,43.85
2023-06-19T11:24:01.580Z,43.26
2023-06-19T11:29:14.150Z,42.59
2023-06-19T11:34:24.342Z,41.85
2023-06-19T11:39:29.253Z,41.24
2023-06-19T11:44:31.481Z,41.26
2023-06-19T11:49:37.450Z,39.36
2023-06-19T11:54:39.531Z,40.03
2023-06-19T11:59:42.604Z,39.70
2023-06-19T12:04:44.864Z,39.51
2023-06-19T12:09:47.030Z,39.98
2023-06-19T12:14:49.347Z,39.08
2023-06-19T12:19:51.582Z,39.25
2023-06-19T12:25:09.184Z,38.95
2023-06-19T12:30:11.847Z,39.57
2023-06-19T12:35:14.178Z,39.31
2023-06-19T12:40:18.108Z,39.49
2023-06-19T12:45:20.347Z,39.00
2023-06-19T12:50:29.808Z,38.24
2023-06-19T12:55:37.186Z,38.76
2023-06-19T13:00:53.131Z,39.49
2023-06-19T13:05:55.264Z,39.72
2023-06-19T13:10:57.734Z,38.48
2023-06-19T13:16:01.792Z,39.05
2023-06-19T13:21:04.385Z,38.46
2023-06-19T13:26:08.151Z,38.86
2023-06-19T13:31:10.601Z,39.43
2023-06-19T13:36:13.090Z,40.03
2023-06-19T13:41:26.123Z,39.09
2023-06-19T13:46:29.472Z,37.83
2023-06-19T13:52:33.382Z,36.24
2023-06-19T13:57:41.020Z,37.29
2023-06-19T14:02:45.745Z,36.37
2023-06-19T14:07:57.984Z,35.21
2023-06-19T14:13:05.488Z,34.33
2023-06-19T14:18:12.211Z,33.87
2023-06-19T14:23:18.517Z,34.58
2023-06-19T14:28:27.679Z,36.28
2023-06-19T14:33:39.068Z,37.75
2023-06-19T14:38:45.646Z,38.50
2023-06-19T14:43:51.243Z,40.33
2023-06-19T14:49:02.698Z,40.79
2023-06-19T14:54:16.436Z,42.51
2023-06-19T14:59:27.764Z,42.85
2023-06-19T15:04:34.357Z,44.00
2023-06-19T15:09:52.114Z,45.06
2023-06-19T15:14:55.891Z,44.58
2023-06-19T15:20:06.933Z,45.20
2023-06-19T15:25:18.267Z,46.35
2023-06-19T15:30:34.602Z,46.28
2023-06-19T15:35:51.138Z,46.70
2023-06-19T15:41:03.501Z,47.60
2023-06-19T15:46:10.415Z,47.93
2023-06-19T15:51:17.273Z,48.65
2023-06-19T15:56:28.886Z,49.59
2023-06-19T16:01:44.206Z,49.94
2023-06-19T16:06:52.248Z,50.31
2023-06-19T16:11:59.482Z,51.07
2023-06-19T16:17:14.421Z,51.63
2023-06-19T16:22:21.744Z,51.76
2023-06-19T16:27:27.588Z,52.33
2023-06-19T16:32:38.430Z,53.27
2023-06-19T16:38:00.165Z,55.25
2023-06-19T16:43:05.087Z,54.65
2023-06-19T16:55:16.548Z,55.42
2023-06-19T17:05:37.568Z,54.87
2023-06-19T17:10:46.106Z,55.96
2023-06-19T17:15:52.013Z,55.95
2023-06-19T17:20:59.048Z,56.48
2023-06-19T17:26:09.557Z,57.47
2023-06-19T17:31:17.947Z,57.31
2023-06-19T17:36:23.275Z,57.47
2023-06-19T17:41:30.865Z,58.65
2023-06-19T17:46:41.765Z,59.01
2023-06-19T17:51:57.030Z,59.17
2023-06-19T17:57:12.603Z,59.79
2023-06-19T18:02:19.900Z,60.39
2023-06-19T18:07:23.033Z,60.80
2023-06-19T18:12:30.951Z,62.05
2023-06-19T18:17:39.229Z,63.07
2023-06-19T18:22:50.186Z,63.23
2023-06-19T18:48:08.879Z,65.85
2023-06-19T18:53:14.785Z,64.84
2023-06-19T18:58:23.806Z,64.97
2023-06-19T19:03:39.483Z,66.22
2023-06-19T19:09:01.388Z,66.27
2023-06-19T19:14:15.981Z,67.35
2023-06-19T19:19:20.361Z,67.21
2023-06-19T19:24:38.546Z,67.33
2023-06-19T19:29:44.307Z,67.91
2023-06-19T19:35:11.425Z,68.19
2023-06-19T19:40:22.423Z,68.83
2023-06-19T19:45:39.314Z,68.61
2023-06-19T19:50:43.563Z,67.99
2023-06-19T19:56:05.002Z,68.89
2023-06-19T20:01:21.071Z,69.26
2023-06-19T20:06:27.217Z,68.12
2023-06-19T20:11:31.252Z,68.18
2023-06-19T20:16:37.951Z,68.28
2023-06-19T20:21:44.088Z,69.09
2023-06-19T20:26:53.161Z,68.91
2023-06-19T20:31:56.077Z,68.94
2023-06-19T20:37:02.259Z,68.80
2023-06-19T20:42:08.115Z,68.67
2023-06-19T20:47:16.089Z,68.79
2023-06-19T20:52:20.636Z,68.75
2023-06-19T20:57:30.324Z,69.01
2023-06-19T21:02:37.178Z,68.63
2023-06-19T21:07:42.895Z,68.51
2023-06-19T21:12:55.467Z,68.41
2023-06-19T21:18:01.145Z,68.66
2023-06-19T21:23:07.591Z,68.54
2023-06-19T21:28:16.104Z,68.80
2023-06-19T21:33:21.449Z,68.69
2023-06-19T21:38:32.341Z,68.64
2023-06-19T21:43:35.096Z,68.48
2023-06-19T21:48:42.483Z,68.64
2023-06-19T21:53:58.691Z,67.56
2023-06-19T21:59:04.279Z,67.41
2023-06-19T22:04:13.702Z,66.97
2023-06-19T22:09:28.982Z,66.79
2023-06-19T22:14:43.530Z,66.38
2023-06-19T22:19:54.936Z,66.40
2023-06-19T22:24:59.561Z,66.32
2023-06-19T22:30:12.156Z,66.46
2023-06-19T22:35:19.836Z,66.35
2023-06-19T22:40:35.207Z,66.56
2023-06-19T22:45:43.194Z,66.70
2023-06-19T22:50:54.507Z,66.44
2023-06-19T22:56:06.361Z,66.77
2023-06-19T23:01:19.481Z,67.00
2023-06-19T23:06:28.983Z,66.46
2023-06-19T23:11:37.361Z,65.97
2023-06-19T23:16:49.236Z,65.51
2023-06-19T23:21:58.147Z,65.17
2023-06-19T23:27:08.822Z,64.69
2023-06-19T23:32:17.762Z,64.46
2023-06-19T23:37:22.029Z,63.99
2023-06-19T23:42:28.183Z,64.01
2023-06-19T23:47:41.816Z,64.02
2023-06-19T23:52:50.459Z,64.06
2023-06-19T23:57:56.735Z,64.64
